Manzanola, Colorado
Current Conditions -  °F | °C
As of 8:53 PM on Friday 19 Dec 2014 (Local Time) from KLHX Reporting Station
Clear Clear  
Wind Chill: -6°   Ceiling: Unl
Heat Index: -3°   Visibility: 10mi
Dew Point: -5°   Wind: 5mph
Humidity: 85%   Direction: 260°W
Pressure: 30.06"   Gusts: NA
Location:  38.11°N, 103.87°W
Report Text: KLHX 200353Z AUTO 26004KT 10SM CLR M03/M05 A3006 RMK AO2 SLP196 T10281050
Loading
Personal Weather Stations






























Interactive Weather Map New forecast layout! Learn more

10-Day Weather Forecast

Advertisements
Track Severe Weather on mobile